Time;durP1;ratioP1;P1;durP2;ratioP2;P2;SDS_P1;SDS_P2;PMS_P1;PMS_P2;Temp;Humidity;BMP_temperature;BMP_pressure;BME280_temperature;BME280_humidity;BME280_pressure;Samples;Min_cycle;Max_cycle;Signal;HPM_P1;HPM_P2
2022/10/31 00:01:25;;;;;;;17.80;11.90;;;;;;;14.01;87.23;101924.22;5041657;28;20040;-54
2022/10/31 00:03:52;;;;;;;21.35;13.43;;;;;;;13.89;87.35;101920.47;5046636;28;20060;-54
2022/10/31 00:06:18;;;;;;;15.50;12.88;;;;;;;13.98;87.50;101932.44;5050041;28;20032;-55
2022/10/31 00:08:51;;;;;;;18.83;14.00;;;;;;;13.95;88.00;101929.94;5047619;28;20388;-54
2022/10/31 00:11:16;;;;;;;22.63;14.20;;;;;;;13.93;88.34;101931.84;5051289;28;20017;-54
2022/10/31 00:13:42;;;;;;;18.92;12.50;;;;;;;13.92;88.04;101928.31;5049366;28;20041;-54
2022/10/31 00:16:17;;;;;;;19.67;12.88;;;;;;;13.92;88.05;101928.31;5045829;28;20030;-54
2022/10/31 00:18:49;;;;;;;18.50;12.68;;;;;;;13.83;88.03;101929.72;5047052;28;20055;-54
2022/10/31 00:21:14;;;;;;;21.02;12.95;;;;;;;13.88;87.88;101925.88;5048292;28;20472;-55
2022/10/31 00:23:40;;;;;;;22.17;13.73;;;;;;;13.75;88.14;101925.75;5047988;28;20044;-54
2022/10/31 00:26:07;;;;;;;23.95;13.35;;;;;;;13.80;88.42;101935.25;5037518;28;20090;-54
2022/10/31 00:28:34;;;;;;;21.52;12.98;;;;;;;13.87;88.65;101927.72;5038587;28;20088;-54
2022/10/31 00:31:04;;;;;;;18.70;13.05;;;;;;;13.72;87.82;101926.81;5044113;28;20029;-53
2022/10/31 00:33:32;;;;;;;15.48;12.55;;;;;;;13.75;87.60;101921.28;5039944;28;20031;-54
2022/10/31 00:35:57;;;;;;;17.80;13.40;;;;;;;13.69;88.16;101927.00;5049336;28;20033;-54
2022/10/31 00:38:23;;;;;;;22.50;13.50;;;;;;;13.75;88.14;101921.28;5030038;28;20095;-54
2022/10/31 00:40:48;;;;;;;20.13;12.98;;;;;;;13.78;88.24;101921.09;5030180;28;20033;-54
2022/10/31 00:43:14;;;;;;;19.98;11.73;;;;;;;13.69;87.83;101907.41;5030146;28;20029;-55
2022/10/31 00:45:41;;;;;;;15.38;12.43;;;;;;;13.60;87.95;101892.78;5045261;28;20036;-54
2022/10/31 00:48:07;;;;;;;17.33;12.35;;;;;;;13.66;88.14;101921.81;5042285;28;20017;-54
2022/10/31 00:50:35;;;;;;;16.73;13.18;;;;;;;13.69;87.69;101918.09;5047080;28;20017;-53
2022/10/31 00:53:01;;;;;;;17.52;11.75;;;;;;;13.62;87.72;101918.47;5047482;28;20455;-54
2022/10/31 00:55:29;;;;;;;22.35;13.63;;;;;;;13.57;87.74;101909.00;5039425;28;20129;-54
2022/10/31 00:57:54;;;;;;;18.70;13.30;;;;;;;13.58;88.00;101910.72;5038469;28;20107;-54
2022/10/31 01:00:23;;;;;;;15.93;12.85;;;;;;;13.61;87.68;101914.06;5044904;28;20473;-54
2022/10/31 01:02:48;;;;;;;18.67;12.48;;;;;;;13.62;87.09;101920.28;5033768;28;20035;-54
2022/10/31 01:05:16;;;;;;;16.58;11.82;;;;;;;13.59;87.41;101923.16;5047184;28;20446;-54
2022/10/31 01:07:42;;;;;;;18.95;13.25;;;;;;;13.49;87.78;101906.75;5047000;28;20036;-54
2022/10/31 01:10:09;;;;;;;22.00;12.82;;;;;;;13.48;87.57;101905.06;5049396;28;20490;-54
2022/10/31 01:12:43;;;;;;;20.83;13.30;;;;;;;13.50;87.48;101903.16;5051568;28;20029;-54
2022/10/31 01:15:09;;;;;;;20.17;13.13;;;;;;;13.48;87.54;101881.00;5048997;28;20025;-54
2022/10/31 01:17:35;;;;;;;17.48;12.75;;;;;;;13.49;87.89;101885.38;5034291;28;20060;-54
2022/10/31 01:20:00;;;;;;;16.17;11.98;;;;;;;13.46;87.48;101898.91;5038686;28;20112;-54
2022/10/31 01:22:26;;;;;;;18.05;12.52;;;;;;;13.50;86.94;101892.47;5028789;28;20056;-54
2022/10/31 01:24:51;;;;;;;22.58;13.65;;;;;;;13.48;87.04;101894.34;5032286;28;20029;-54
2022/10/31 01:27:16;;;;;;;17.88;12.45;;;;;;;13.52;86.67;101898.56;5039882;28;20036;-54
2022/10/31 01:29:42;;;;;;;16.02;11.95;;;;;;;13.45;86.37;101899.03;5049266;28;20025;-53
2022/10/31 01:32:07;;;;;;;16.25;12.55;;;;;;;13.40;86.13;101904.63;5034770;28;20033;-54
2022/10/31 01:34:33;;;;;;;20.27;13.35;;;;;;;13.39;85.60;101897.56;5032995;28;20041;-54
2022/10/31 01:37:00;;;;;;;20.80;13.50;;;;;;;13.30;86.14;101906.97;5040550;28;20511;-54
2022/10/31 01:39:26;;;;;;;15.38;12.32;;;;;;;13.24;86.33;101909.97;5049262;28;20029;-54
2022/10/31 01:41:53;;;;;;;20.98;13.15;;;;;;;13.28;86.73;101916.03;5031451;28;20038;-54
2022/10/31 01:44:18;;;;;;;16.52;12.63;;;;;;;13.31;86.40;101911.38;5041164;28;20085;-54
2022/10/31 01:47:15;;;;;;;18.15;12.45;;;;;;;13.36;86.14;101911.97;5051262;28;20024;-54
2022/10/31 01:49:54;;;;;;;16.85;12.70;;;;;;;13.30;86.33;101900.78;5037462;28;20072;-55
2022/10/31 01:52:42;;;;;;;25.77;14.32;;;;;;;13.25;86.44;101914.38;5031115;28;20025;-54
2022/10/31 01:55:42;;;;;;;17.65;13.57;;;;;;;13.25;86.18;101906.38;5038019;28;20025;-54
2022/10/31 01:58:13;;;;;;;16.60;12.40;;;;;;;12.98;86.66;101899.91;5031133;28;20033;-54
2022/10/31 02:00:41;;;;;;;19.88;13.95;;;;;;;13.01;86.67;101887.25;5043852;28;20036;-54
2022/10/31 02:03:08;;;;;;;19.75;13.60;;;;;;;13.00;86.82;101903.34;5049447;28;20384;-54
2022/10/31 02:05:35;;;;;;;17.05;13.25;;;;;;;12.96;87.13;101891.97;5039596;28;20505;-55
2022/10/31 02:08:19;;;;;;;19.40;13.60;;;;;;;12.95;87.36;101895.59;5040921;28;20041;-55
2022/10/31 02:10:45;;;;;;;19.00;13.38;;;;;;;12.91;86.83;101888.69;5043058;28;20033;-54
2022/10/31 02:13:12;;;;;;;15.02;12.73;;;;;;;12.81;87.71;101899.03;5021741;28;20086;-55
2022/10/31 02:15:39;;;;;;;22.13;13.75;;;;;;;12.78;87.25;101885.00;5047607;28;20025;-54
2022/10/31 02:18:08;;;;;;;17.83;12.82;;;;;;;12.85;87.53;101895.25;5039727;28;20049;-54
2022/10/31 02:20:57;;;;;;;14.40;12.40;;;;;;;12.82;87.67;101883.88;5037188;28;20140;-54
2022/10/31 02:23:52;;;;;;;15.40;13.27;;;;;;;12.90;87.20;101886.97;5019730;28;20105;-54
2022/10/31 02:26:41;;;;;;;17.05;12.90;;;;;;;12.87;86.65;101890.69;5035571;28;20067;-54
2022/10/31 02:29:34;;;;;;;18.97;12.37;;;;;;;12.78;86.27;101885.00;5040508;28;20518;-54
2022/10/31 02:31:59;;;;;;;21.63;12.95;;;;;;;12.69;85.79;101886.38;5045017;28;20025;-54
2022/10/31 02:34:51;;;;;;;16.27;12.73;;;;;;;12.76;86.05;101885.06;5045298;28;20032;-54
2022/10/31 02:37:34;;;;;;;17.83;12.95;;;;;;;12.79;85.58;101887.56;5034089;28;20021;-54
2022/10/31 02:40:38;;;;;;;15.88;13.02;;;;;;;12.67;86.03;101891.78;5036526;28;20029;-54
2022/10/31 02:43:23;;;;;;;15.88;11.88;;;;;;;12.70;85.70;101888.94;5030847;28;20116;-54
2022/10/31 02:45:57;;;;;;;16.67;12.98;;;;;;;12.50;86.42;101882.03;5040303;28;20528;-55
2022/10/31 02:48:35;;;;;;;15.05;12.35;;;;;;;12.57;86.86;101885.25;5033109;28;20029;-54
2022/10/31 02:51:03;;;;;;;14.93;12.45;;;;;;;12.57;86.51;101885.25;5033494;28;20033;-54
2022/10/31 02:53:33;;;;;;;15.18;12.43;;;;;;;12.65;86.42;101884.81;5037079;28;20301;-54
2022/10/31 02:56:04;;;;;;;17.70;12.38;;;;;;;12.64;86.54;101883.09;5033967;28;20489;-54
2022/10/31 02:58:32;;;;;;;16.90;12.07;;;;;;;12.69;86.76;101887.22;5033632;28;20041;-54
2022/10/31 03:01:18;;;;;;;17.42;12.25;;;;;;;12.64;87.36;101889.28;5038717;28;20378;-54
2022/10/31 03:04:02;;;;;;;17.05;12.80;;;;;;;12.64;87.24;101889.28;5038541;28;20134;-54
2022/10/31 03:06:39;;;;;;;18.27;12.60;;;;;;;12.63;87.25;101884.03;5035031;28;20080;-54
2022/10/31 03:09:10;;;;;;;16.42;12.98;;;;;;;12.62;87.55;101885.00;5045525;28;20028;-54
2022/10/31 03:11:47;;;;;;;16.65;12.43;;;;;;;12.63;87.15;101871.56;5050522;28;20025;-54
2022/10/31 03:14:22;;;;;;;17.13;12.77;;;;;;;12.56;87.50;101883.53;5052295;28;20037;-54
2022/10/31 03:16:54;;;;;;;15.82;12.40;;;;;;;12.50;87.80;101883.88;5038473;28;20079;-54
2022/10/31 03:19:31;;;;;;;17.52;12.98;;;;;;;12.46;88.77;101885.81;5042741;28;20072;-54
2022/10/31 03:22:07;;;;;;;17.42;12.57;;;;;;;12.49;88.38;101884.78;5049900;28;20031;-54
2022/10/31 03:24:37;;;;;;;15.38;12.02;;;;;;;12.49;87.98;101885.63;5050832;28;20033;-54
2022/10/31 03:27:05;;;;;;;17.60;11.55;;;;;;;12.49;87.13;101890.13;5050678;28;20086;-53
2022/10/31 03:29:35;;;;;;;14.60;12.52;;;;;;;12.46;87.23;101880.47;5041026;28;20029;-54
2022/10/31 03:32:08;;;;;;;15.68;12.05;;;;;;;12.44;86.94;101885.06;5034670;28;20029;-54
2022/10/31 03:34:36;;;;;;;13.77;10.48;;;;;;;12.35;86.34;101884.66;5032463;28;20029;-53
2022/10/31 03:37:06;;;;;;;15.15;12.50;;;;;;;12.39;86.66;101886.25;5044408;28;20033;-53
2022/10/31 03:39:34;;;;;;;15.40;12.48;;;;;;;12.44;86.43;101889.50;5045867;28;20094;-54
2022/10/31 03:42:08;;;;;;;18.23;12.48;;;;;;;12.41;86.30;101887.00;5033112;28;20025;-54
2022/10/31 03:44:35;;;;;;;15.05;12.63;;;;;;;12.33;86.36;101890.09;5048002;28;20032;-54
2022/10/31 03:47:03;;;;;;;17.85;13.88;;;;;;;12.27;86.72;101882.44;5032962;28;20079;-53
2022/10/31 03:49:29;;;;;;;15.68;13.40;;;;;;;12.32;86.68;101883.03;5041260;28;20036;-54
2022/10/31 03:52:02;;;;;;;16.38;13.02;;;;;;;12.31;86.57;101878.63;5050149;28;20029;-55
2022/10/31 03:54:41;;;;;;;17.45;12.02;;;;;;;12.32;86.54;101875.00;5040292;28;20033;-53
2022/10/31 03:57:18;;;;;;;20.98;12.63;;;;;;;12.27;86.47;101875.28;5032850;28;20480;-54
2022/10/31 03:59:53;;;;;;;16.05;12.52;;;;;;;12.23;86.63;101879.03;5049851;28;20028;-55
2022/10/31 04:02:25;;;;;;;16.13;12.93;;;;;;;12.22;86.43;101874.66;5049827;28;20032;-55
2022/10/31 04:04:51;;;;;;;18.45;13.32;;;;;;;12.18;86.18;101875.78;5033917;28;20900;-53
2022/10/31 04:07:21;;;;;;;15.45;12.57;;;;;;;12.22;86.17;101880.00;5051252;28;20031;-54
2022/10/31 04:09:49;;;;;;;15.07;12.07;;;;;;;12.19;86.06;101882.81;5047548;28;20031;-54
2022/10/31 04:12:16;;;;;;;17.67;13.38;;;;;;;12.24;86.13;101885.25;5051951;28;20623;-54
2022/10/31 04:14:47;;;;;;;19.33;13.85;;;;;;;12.19;86.30;101888.16;5050513;28;20431;-55
2022/10/31 04:17:16;;;;;;;17.55;13.52;;;;;;;12.19;86.61;101900.63;5051901;28;20064;-53
2022/10/31 04:19:42;;;;;;;16.63;12.75;;;;;;;12.15;86.58;101891.09;5041451;28;20095;-54
2022/10/31 04:22:07;;;;;;;16.75;12.65;;;;;;;12.07;87.07;101877.28;5047547;28;20025;-54
2022/10/31 04:24:33;;;;;;;15.25;13.55;;;;;;;12.12;86.73;101883.22;5051111;28;20434;-54
2022/10/31 04:26:59;;;;;;;18.17;12.82;;;;;;;12.13;87.37;101890.31;5051947;28;20039;-54
2022/10/31 04:29:24;;;;;;;16.40;13.13;;;;;;;12.04;87.97;101889.84;5051965;28;20032;-53
2022/10/31 04:31:49;;;;;;;16.05;12.82;;;;;;;12.15;87.86;101896.41;5049679;28;20033;-52
2022/10/31 04:34:15;;;;;;;17.02;13.35;;;;;;;12.14;87.89;101900.00;5036897;28;20032;-53
2022/10/31 04:36:40;;;;;;;15.10;12.55;;;;;;;12.08;88.33;101895.00;5040677;28;20357;-54
2022/10/31 04:39:06;;;;;;;16.63;13.52;;;;;;;12.13;88.54;101892.97;5051591;28;20108;-54
2022/10/31 04:41:31;;;;;;;17.50;13.30;;;;;;;12.08;88.66;101892.34;5041245;28;20515;-54
2022/10/31 04:43:56;;;;;;;18.95;13.68;;;;;;;12.07;89.36;101879.97;5037683;28;20104;-55
2022/10/31 04:46:22;;;;;;;16.45;13.23;;;;;;;12.07;89.53;101888.81;5045328;28;20044;-53
2022/10/31 04:48:47;;;;;;;20.45;13.90;;;;;;;12.05;89.42;101890.69;5038136;28;20400;-55
2022/10/31 04:51:15;;;;;;;17.52;13.98;;;;;;;12.11;89.14;101894.84;5033942;28;20120;-54
2022/10/31 04:53:41;;;;;;;18.67;14.07;;;;;;;12.16;89.11;101885.66;5031707;28;20029;-54
2022/10/31 04:56:06;;;;;;;19.67;13.80;;;;;;;12.10;89.25;101888.66;5038795;28;20104;-54
2022/10/31 04:58:34;;;;;;;21.63;14.38;;;;;;;12.11;89.01;101895.69;5035493;28;20063;-54
2022/10/31 05:00:59;;;;;;;16.90;14.07;;;;;;;12.16;88.91;101887.47;5037812;28;20028;-54
2022/10/31 05:03:25;;;;;;;22.40;14.00;;;;;;;12.20;88.75;101884.53;5049475;28;20044;-54
2022/10/31 05:05:53;;;;;;;19.02;13.93;;;;;;;12.18;88.60;101878.44;5046174;28;20033;-53
2022/10/31 05:08:18;;;;;;;20.52;14.82;;;;;;;12.13;88.63;101876.97;5042165;28;20509;-54
2022/10/31 05:10:44;;;;;;;15.10;12.95;;;;;;;12.04;88.06;101871.16;5039397;28;20029;-55
2022/10/31 05:13:09;;;;;;;18.00;13.73;;;;;;;12.03;88.71;101879.25;5043633;28;20057;-54
2022/10/31 05:15:37;;;;;;;18.30;14.00;;;;;;;12.05;88.76;101880.88;5039271;28;20156;-54
2022/10/31 05:18:03;;;;;;;19.60;14.63;;;;;;;12.06;88.36;101876.44;5050635;28;20499;-54
2022/10/31 05:20:30;;;;;;;19.75;14.77;;;;;;;12.00;88.38;101876.72;5040951;28;20035;-54
2022/10/31 05:22:57;;;;;;;17.25;13.80;;;;;;;12.01;88.42;101879.34;5049523;28;20033;-54
2022/10/31 05:25:27;;;;;;;19.00;14.05;;;;;;;11.82;88.94;101860.75;5037078;28;20120;-54
2022/10/31 05:27:56;;;;;;;18.15;14.10;;;;;;;11.91;88.48;101874.56;5030076;28;20532;-53
2022/10/31 05:30:28;;;;;;;17.83;14.30;;;;;;;11.89;88.85;101873.78;5047107;28;20485;-55
2022/10/31 05:32:55;;;;;;;18.08;14.52;;;;;;;11.80;89.19;101865.28;5039199;28;20396;-54
2022/10/31 05:35:23;;;;;;;19.92;14.85;;;;;;;11.86;88.93;101872.13;5030871;28;20053;-54
2022/10/31 05:37:50;;;;;;;19.67;14.73;;;;;;;11.85;89.01;101865.06;5040513;28;20390;-54
2022/10/31 05:40:18;;;;;;;18.15;14.45;;;;;;;11.78;89.68;101866.31;5038083;28;20021;-54
2022/10/31 05:42:44;;;;;;;19.60;14.02;;;;;;;11.72;88.91;101866.63;5049673;28;20021;-54
2022/10/31 05:45:13;;;;;;;18.00;14.80;;;;;;;11.72;89.23;101863.97;5047729;28;20045;-53
2022/10/31 05:47:39;;;;;;;20.70;16.10;;;;;;;11.75;89.06;101859.31;5038272;28;20420;-54
2022/10/31 05:50:05;;;;;;;22.13;15.70;;;;;;;11.65;89.61;101854.53;5030713;28;20076;-53
2022/10/31 05:52:32;;;;;;;20.23;14.60;;;;;;;11.70;89.20;101858.69;5035544;28;20037;-54
2022/10/31 05:54:57;;;;;;;21.08;15.30;;;;;;;11.72;88.93;101850.63;5017253;28;20033;-54
2022/10/31 05:57:23;;;;;;;22.35;15.20;;;;;;;11.68;89.08;101849.09;5041531;28;20029;-54
2022/10/31 05:59:48;;;;;;;19.10;14.55;;;;;;;11.72;88.94;101845.31;5049469;28;20025;-53
2022/10/31 06:02:14;;;;;;;22.67;14.55;;;;;;;11.64;88.84;101843.03;5035249;28;20029;-54
2022/10/31 06:04:39;;;;;;;17.08;14.30;;;;;;;11.65;89.05;101847.44;5036481;28;20441;-55
2022/10/31 06:07:04;;;;;;;19.88;14.85;;;;;;;11.52;89.25;101844.50;5050742;28;20037;-54
2022/10/31 06:09:30;;;;;;;19.90;14.95;;;;;;;11.56;88.85;101845.25;5039608;28;20033;-54
2022/10/31 06:11:55;;;;;;;19.90;15.07;;;;;;;11.54;88.40;101839.13;5035395;28;20017;-53
2022/10/31 06:14:23;;;;;;;21.98;16.10;;;;;;;11.52;88.58;101838.31;5033829;28;20104;-54
2022/10/31 06:16:49;;;;;;;24.38;17.20;;;;;;;11.50;88.83;101832.22;5052632;28;20472;-54
2022/10/31 06:19:14;;;;;;;18.60;16.02;;;;;;;11.49;89.29;101839.34;5037026;28;20049;-54
2022/10/31 06:21:40;;;;;;;21.08;15.32;;;;;;;11.45;88.74;101840.44;5037398;28;20064;-54
2022/10/31 06:24:05;;;;;;;18.83;15.98;;;;;;;11.51;88.76;101842.81;5035866;28;20072;-54
2022/10/31 06:26:31;;;;;;;22.85;14.75;;;;;;;11.42;88.09;101843.28;5040578;28;20025;-54
2022/10/31 06:28:56;;;;;;;20.75;15.18;;;;;;;11.48;88.42;101839.44;5038192;28;20083;-54
2022/10/31 06:31:21;;;;;;;21.77;15.25;;;;;;;11.49;88.34;101849.13;5041214;28;20033;-54
2022/10/31 06:33:47;;;;;;;23.65;16.13;;;;;;;11.52;88.79;101841.00;5033042;28;20072;-54
2022/10/31 06:36:12;;;;;;;24.38;16.00;;;;;;;11.48;89.03;101847.44;5048714;28;20521;-54
2022/10/31 06:38:37;;;;;;;20.70;16.63;;;;;;;11.49;88.96;101846.47;5051920;28;20079;-55
2022/10/31 06:41:04;;;;;;;22.77;16.13;;;;;;;11.50;88.66;101856.19;5048416;28;20458;-54
2022/10/31 06:43:30;;;;;;;21.63;16.10;;;;;;;11.47;89.27;101857.22;5041374;28;20021;-55
2022/10/31 06:45:56;;;;;;;22.67;16.20;;;;;;;11.42;89.35;101850.41;5052073;28;20032;-54
2022/10/31 06:48:24;;;;;;;28.45;16.50;;;;;;;11.47;88.95;101843.03;5035928;28;20021;-54
2022/10/31 06:50:49;;;;;;;26.38;16.45;;;;;;;11.53;89.03;101846.25;5041485;28;20044;-54
2022/10/31 06:53:17;;;;;;;26.58;17.17;;;;;;;11.50;89.14;101851.75;5032447;28;20029;-54
2022/10/31 06:55:42;;;;;;;27.48;17.88;;;;;;;11.56;89.34;101842.56;5031234;28;20065;-54
2022/10/31 06:58:10;;;;;;;26.60;16.35;;;;;;;11.46;89.22;101841.31;5045485;28;20101;-54
2022/10/31 07:00:35;;;;;;;29.95;17.30;;;;;;;11.57;89.79;101844.28;5045188;28;20478;-53
2022/10/31 07:03:08;;;;;;;27.42;17.98;;;;;;;11.60;89.71;101842.31;5046056;28;20277;-54
2022/10/31 07:05:36;;;;;;;24.80;17.33;;;;;;;11.58;90.27;101838.88;5046663;28;20113;-54
2022/10/31 07:08:06;;;;;;;23.20;17.13;;;;;;;11.64;89.93;101839.50;5051790;28;20027;-54
2022/10/31 07:10:34;;;;;;;27.10;16.33;;;;;;;11.67;90.06;101842.88;5050643;28;20064;-54
2022/10/31 07:13:02;;;;;;;29.98;17.45;;;;;;;11.64;91.10;101843.03;5040962;28;20430;-53
2022/10/31 07:15:29;;;;;;;28.23;17.67;;;;;;;11.72;90.57;101846.16;5037724;28;20080;-55
2022/10/31 07:18:07;;;;;;;25.95;17.67;;;;;;;11.79;90.16;101844.91;5053068;28;20041;-54
2022/10/31 07:20:33;;;;;;;28.73;16.75;;;;;;;11.74;91.18;101836.28;5047717;28;20110;-54
2022/10/31 07:22:58;;;;;;;27.83;18.30;;;;;;;11.78;91.76;101851.16;5049400;28;20075;-54
2022/10/31 07:25:24;;;;;;;25.83;17.50;;;;;;;11.79;91.81;101849.34;5046881;28;20095;-54
2022/10/31 07:27:50;;;;;;;24.33;18.20;;;;;;;11.82;92.07;101849.19;5049714;28;20021;-52
2022/10/31 07:30:18;;;;;;;33.63;18.38;;;;;;;11.79;91.99;101842.25;5052866;28;20040;-52
2022/10/31 07:32:45;;;;;;;29.27;18.15;;;;;;;11.83;92.32;101857.13;5049176;28;20082;-54
2022/10/31 07:35:15;;;;;;;33.15;18.45;;;;;;;11.88;92.15;101850.72;5051610;28;20032;-53
2022/10/31 07:37:41;;;;;;;25.42;19.05;;;;;;;11.94;91.95;101856.63;5033758;28;20026;-53
2022/10/31 07:40:07;;;;;;;34.22;18.75;;;;;;;11.97;92.55;101861.78;5034275;28;20071;-54
2022/10/31 07:42:41;;;;;;;29.83;18.92;;;;;;;11.96;93.05;101860.03;5052609;28;20029;-53
2022/10/31 07:45:10;;;;;;;29.83;19.58;;;;;;;12.00;92.84;101853.63;5042041;28;20104;-54
2022/10/31 07:47:39;;;;;;;30.60;19.92;;;;;;;12.02;93.53;101854.38;5033096;28;20025;-53
2022/10/31 07:50:08;;;;;;;33.10;20.67;;;;;;;12.05;93.54;101858.69;5032843;28;20407;-52
2022/10/31 07:52:34;;;;;;;36.58;20.98;;;;;;;12.12;93.81;101859.22;5033913;28;20029;-53
2022/10/31 07:55:00;;;;;;;30.85;21.23;;;;;;;12.15;94.04;101859.09;5031928;28;20029;-53
2022/10/31 07:57:36;;;;;;;30.05;20.88;;;;;;;12.16;94.45;101863.47;5035238;28;20036;-52
2022/10/31 08:00:03;;;;;;;27.77;20.30;;;;;;;12.25;94.52;101852.31;5050627;28;20037;-54
2022/10/31 08:02:29;;;;;;;33.75;23.88;;;;;;;12.31;95.83;101853.78;5052067;28;20096;-53
2022/10/31 08:04:55;;;;;;;39.70;25.50;;;;;;;12.37;96.78;101856.09;5044316;28;20637;-53
2022/10/31 08:07:23;;;;;;;35.75;26.10;;;;;;;12.40;96.74;101855.94;5046948;28;20029;-54
2022/10/31 08:09:48;;;;;;;33.17;24.83;;;;;;;12.47;96.59;101851.97;5050546;28;20029;-53
2022/10/31 08:12:14;;;;;;;42.72;26.70;;;;;;;12.64;97.97;101859.06;5047030;28;20467;-54
2022/10/31 08:14:39;;;;;;;36.58;26.95;;;;;;;12.68;98.37;101857.97;5049224;28;20167;-53
2022/10/31 08:17:05;;;;;;;41.03;26.92;;;;;;;12.80;98.48;101853.75;5050347;28;20045;-52
2022/10/31 08:19:30;;;;;;;40.88;29.00;;;;;;;12.89;99.28;101855.91;5039839;28;20116;-54
2022/10/31 08:21:56;;;;;;;44.75;29.92;;;;;;;12.98;99.69;101843.81;5022504;28;20084;-53
2022/10/31 08:24:24;;;;;;;46.67;31.50;;;;;;;13.05;99.67;101838.03;5045587;28;20033;-53
2022/10/31 08:26:49;;;;;;;47.22;31.48;;;;;;;13.11;99.29;101851.03;5044056;28;20025;-52
2022/10/31 08:29:18;;;;;;;55.67;31.92;;;;;;;13.19;100.00;101862.13;5043536;28;20040;-54
2022/10/31 08:31:43;;;;;;;47.67;32.30;;;;;;;13.25;100.00;101852.94;5040043;28;20036;-55
2022/10/31 08:34:09;;;;;;;45.72;32.33;;;;;;;13.32;99.95;101843.59;5046419;28;20033;-54
2022/10/31 08:36:34;;;;;;;47.53;31.80;;;;;;;13.37;100.00;101846.88;5051502;28;20036;-54
2022/10/31 08:39:00;;;;;;;52.35;32.70;;;;;;;13.39;100.00;101839.63;5037430;28;20435;-53
2022/10/31 08:41:26;;;;;;;47.70;32.35;;;;;;;13.37;100.00;101813.97;5050470;28;20017;-52
2022/10/31 08:43:51;;;;;;;43.00;30.23;;;;;;;13.38;99.44;101788.94;5051298;28;20064;-54
2022/10/31 08:46:17;;;;;;;42.08;30.45;;;;;;;13.40;99.72;101797.75;5049744;28;20399;-52
2022/10/31 08:48:42;;;;;;;45.38;30.95;;;;;;;13.43;99.64;101802.91;5048286;28;20456;-54
2022/10/31 08:51:09;;;;;;;46.05;30.02;;;;;;;13.47;99.78;101792.88;5051155;28;20031;-54
2022/10/31 08:53:35;;;;;;;44.70;31.17;;;;;;;13.48;99.95;101806.16;5043759;28;20563;-54
2022/10/31 08:56:00;;;;;;;42.30;30.10;;;;;;;13.50;100.00;101828.31;5044718;28;20032;-54
2022/10/31 08:58:26;;;;;;;39.88;29.30;;;;;;;13.49;100.00;101825.72;5048063;28;20033;-52
2022/10/31 09:00:53;;;;;;;46.28;32.47;;;;;;;13.48;100.00;101822.19;5050619;28;20090;-54
2022/10/31 09:03:21;;;;;;;49.90;30.77;;;;;;;13.51;100.00;101824.69;5043035;28;20017;-54
2022/10/31 09:05:49;;;;;;;42.80;29.67;;;;;;;13.52;100.00;101818.38;5037329;28;20120;-54
2022/10/31 09:08:15;;;;;;;43.88;31.13;;;;;;;13.50;100.00;101806.94;5039823;28;20470;-53
2022/10/31 09:10:41;;;;;;;47.53;31.23;;;;;;;13.59;100.00;101816.22;5050169;28;20021;-52
2022/10/31 09:13:18;;;;;;;50.72;33.53;;;;;;;13.62;100.00;101816.03;5050897;28;20021;-54
2022/10/31 09:15:45;;;;;;;42.45;31.50;;;;;;;13.66;100.00;101835.41;5048997;28;20028;-54
2022/10/31 09:18:12;;;;;;;43.10;31.83;;;;;;;13.70;100.00;101831.59;5050518;28;20409;-54
2022/10/31 09:20:39;;;;;;;43.53;32.38;;;;;;;13.75;100.00;101813.47;5046411;28;20507;-53
2022/10/31 09:23:14;;;;;;;45.17;32.47;;;;;;;13.80;100.00;101806.88;5050462;28;20099;-54
2022/10/31 09:25:41;;;;;;;46.38;31.58;;;;;;;13.90;100.00;101784.94;5049415;28;20037;-54
2022/10/31 09:28:10;;;;;;;46.10;33.03;;;;;;;13.99;100.00;101785.19;5054940;28;20379;-54
2022/10/31 09:30:38;;;;;;;48.10;32.25;;;;;;;14.03;100.00;101781.41;5052940;28;20100;-54
2022/10/31 09:33:12;;;;;;;51.05;32.65;;;;;;;14.07;99.68;101766.88;5053204;28;20035;-54
2022/10/31 09:35:38;;;;;;;46.70;31.85;;;;;;;14.09;99.58;101770.31;5044050;28;20519;-54
2022/10/31 09:38:10;;;;;;;47.42;32.17;;;;;;;14.10;99.70;101747.09;5033398;28;20041;-54
2022/10/31 09:40:37;;;;;;;50.03;31.98;;;;;;;14.12;99.51;101750.53;5052166;28;20399;-54
2022/10/31 09:43:15;;;;;;;42.85;31.58;;;;;;;14.14;99.34;101755.78;5054529;28;20024;-54
2022/10/31 09:45:53;;;;;;;50.15;33.85;;;;;;;14.13;99.46;101773.66;5043942;28;20030;-55
2022/10/31 09:48:37;;;;;;;45.07;32.60;;;;;;;14.10;99.84;101776.50;5046730;28;20025;-54
2022/10/31 09:51:13;;;;;;;48.63;33.33;;;;;;;13.95;99.72;101740.03;5037204;28;20017;-54
2022/10/31 09:53:56;;;;;;;51.17;34.35;;;;;;;14.12;100.00;101757.69;5046185;28;20472;-54
2022/10/31 09:56:27;;;;;;;54.45;34.38;;;;;;;14.13;99.77;101751.38;5051280;28;20091;-54
2022/10/31 09:59:00;;;;;;;50.92;34.05;;;;;;;14.16;100.00;101760.06;5051383;28;20024;-54
2022/10/31 10:01:40;;;;;;;47.92;34.13;;;;;;;14.17;100.00;101756.44;5042280;28;20035;-54
2022/10/31 10:04:30;;;;;;;52.63;33.45;;;;;;;14.23;100.00;101744.47;5061553;28;20043;-54
2022/10/31 10:06:57;;;;;;;47.67;32.85;;;;;;;14.34;100.00;101720.56;5051151;28;20394;-54
2022/10/31 10:09:26;;;;;;;47.00;33.25;;;;;;;14.48;100.00;101725.88;5051400;28;20035;-53
2022/10/31 10:12:06;;;;;;;49.43;33.90;;;;;;;14.79;99.80;101723.88;5044649;28;20095;-54
2022/10/31 10:14:55;;;;;;;46.58;32.42;;;;;;;14.96;97.70;101717.41;5050536;28;20086;-55
2022/10/31 10:17:32;;;;;;;45.20;32.42;;;;;;;15.14;96.94;101723.31;5040459;28;20051;-54
2022/10/31 10:20:40;;;;;;;52.90;32.30;;;;;;;15.16;96.15;101722.25;5037985;28;20339;-54
2022/10/31 10:23:46;;;;;;;52.03;33.97;;;;;;;15.18;95.13;101706.94;5038501;28;20045;-54
2022/10/31 10:26:19;;;;;;;48.65;32.63;;;;;;;15.13;94.08;101703.72;5051411;28;20029;-54
2022/10/31 10:28:50;;;;;;;48.28;32.15;;;;;;;15.13;94.51;101692.13;5053553;28;20039;-54
2022/10/31 10:31:19;;;;;;;51.97;34.50;;;;;;;15.11;94.88;101688.69;5053488;28;20067;-54
2022/10/31 10:34:03;;;;;;;56.08;35.45;;;;;;;14.97;94.46;101682.47;5049404;28;20036;-54
2022/10/31 10:36:47;;;;;;;54.45;35.05;;;;;;;15.01;94.34;101709.06;5048365;28;20029;-54
2022/10/31 10:39:15;;;;;;;49.28;34.88;;;;;;;15.04;94.76;101716.88;5053264;28;20400;-54
2022/10/31 10:41:45;;;;;;;56.55;35.28;;;;;;;15.07;94.65;101705.97;5051356;28;20028;-54
2022/10/31 10:44:15;;;;;;;57.17;35.42;;;;;;;15.11;94.80;101713.66;5051019;28;20029;-52
2022/10/31 10:49:52;;;;;;;61.95;37.60;;;;;;;15.11;95.09;101710.97;5048045;28;20170;-54
2022/10/31 10:53:01;;;;;;;56.20;36.88;;;;;;;15.16;95.54;101703.50;5048368;28;20104;-54
2022/10/31 10:55:41;;;;;;;52.38;34.85;;;;;;;15.19;95.09;101691.72;5035214;28;20039;-54
2022/10/31 10:58:10;;;;;;;54.92;36.53;;;;;;;15.19;94.72;101684.53;5038351;28;20733;-54
2022/10/31 11:00:39;;;;;;;58.00;38.15;;;;;;;15.27;95.24;101685.84;5040061;28;20108;-53
2022/10/31 11:03:05;;;;;;;;;;;;;;;15.35;94.57;101689.69;5052594;28;20546;-54
2022/10/31 11:05:34;;;;;;;55.53;35.50;;;;;;;15.37;94.30;101685.06;5052719;28;19923;-54
2022/10/31 11:07:59;;;;;;;58.85;36.95;;;;;;;15.48;94.33;101688.84;5048842;28;20424;-54
2022/10/31 11:10:25;;;;;;;56.83;37.05;;;;;;;15.53;93.71;101690.22;5045907;28;20031;-54
2022/10/31 11:13:20;;;;;;;64.22;37.20;;;;;;;15.65;93.98;101683.13;5046891;28;20033;-54
2022/10/31 11:16:03;;;;;;;58.72;36.33;;;;;;;15.72;93.13;101681.75;5052081;28;20056;-53
2022/10/31 11:18:37;;;;;;;54.45;35.08;;;;;;;15.74;92.79;101665.56;5047625;28;20132;-54
2022/10/31 11:21:04;;;;;;;51.80;34.85;;;;;;;15.74;91.83;101658.38;5050500;28;20028;-54
2022/10/31 11:23:33;;;;;;;53.33;34.63;;;;;;;15.72;91.94;101651.41;5052691;28;20384;-54
2022/10/31 11:26:04;;;;;;;58.10;36.70;;;;;;;15.66;91.58;101632.06;5052719;28;20403;-54